GJS4587 KEWR-KDCA
Flight info
| Callsign | GJS4587 |
|---|---|
| Flight time | N/A |
| Altitude | 26000 |
| Route | BIGGY Q75 MXE CLIPR3 |
| Aircraft | CRJ7/M-SDFGIRWY/S |
Departure
| Time | 2026-04-22 03:04 |
|---|---|
| Airport | Newark Liberty International Airport (KEWR) |
Arrival
| Time | N/A |
|---|---|
| Airport | Ronald Reagan Washington National Airport (KDCA) |
| Time | Latitude | Longitude | Altitude | Speed | Heading |
|---|---|---|---|---|---|
| 2026-04-22 02:36 | 40.69636 | -74.17318 | 20 ft | 0 kts | 155° |
| 2026-04-22 02:55 | 40.69653 | -74.17329 | 21 ft | 4 kts | 155° |
| 2026-04-22 02:56 | 40.69678 | -74.17344 | 23 ft | 4 kts | 155° |
| 2026-04-22 02:56 | 40.69698 | -74.17355 | 30 ft | 4 kts | 164° |
| 2026-04-22 02:56 | 40.69720 | -74.17350 | 15 ft | 4 kts | 223° |
| 2026-04-22 02:56 | 40.69733 | -74.17323 | 21 ft | 4 kts | 252° |
| 2026-04-22 02:57 | 40.69730 | -74.17300 | 21 ft | 4 kts | 331° |
| 2026-04-22 02:57 | 40.69716 | -74.17308 | 23 ft | 4 kts | 55° |
| 2026-04-22 02:57 | 40.69704 | -74.17331 | 17 ft | 0 kts | 55° |
| 2026-04-22 02:59 | 40.69713 | -74.17297 | 23 ft | 7 kts | 79° |
| 2026-04-22 03:00 | 40.69752 | -74.17206 | 22 ft | 15 kts | 50° |
| 2026-04-22 03:00 | 40.69800 | -74.17130 | 20 ft | 0 kts | 61° |
| 2026-04-22 03:00 | 40.69803 | -74.17121 | 22 ft | 1 kts | 83° |
| 2026-04-22 03:00 | 40.69774 | -74.17102 | 20 ft | 14 kts | 162° |
| 2026-04-22 03:01 | 40.69663 | -74.17037 | 23 ft | 18 kts | 157° |
| 2026-04-22 03:01 | 40.69628 | -74.16966 | 20 ft | 11 kts | 70° |
| 2026-04-22 03:01 | 40.69661 | -74.16845 | 21 ft | 16 kts | 70° |
| 2026-04-22 03:01 | 40.69718 | -74.16720 | 20 ft | 17 kts | 30° |
| 2026-04-22 03:02 | 40.69832 | -74.16647 | 19 ft | 20 kts | 26° |
| 2026-04-22 03:02 | 40.69959 | -74.16565 | 19 ft | 21 kts | 26° |
| 2026-04-22 03:02 | 40.70094 | -74.16482 | 19 ft | 21 kts | 16° |
| 2026-04-22 03:02 | 40.70235 | -74.16461 | 22 ft | 16 kts | 5° |
| 2026-04-22 03:03 | 40.70280 | -74.16379 | 20 ft | 13 kts | 94° |
| 2026-04-22 03:03 | 40.70269 | -74.16259 | 20 ft | 13 kts | 114° |
| 2026-04-22 03:03 | 40.70184 | -74.16262 | 18 ft | 22 kts | 205° |
| 2026-04-22 03:03 | 40.69809 | -74.16503 | 19 ft | 99 kts | 205° |
| 2026-04-22 03:04 | 40.68982 | -74.17033 | 108 ft | 153 kts | 205° |
| 2026-04-22 03:04 | 40.68017 | -74.17687 | 817 ft | 162 kts | 206° |
| 2026-04-22 03:04 | 40.66887 | -74.18135 | 1510 ft | 180 kts | 186° |
| 2026-04-22 03:04 | 40.65561 | -74.18342 | 2060 ft | 211 kts | 188° |